sensor_id;sensor_type;location;lat;lon;timestamp;P1;durP1;ratioP1;P2;durP2;ratioP2
8411;SDS011;4243;49.296;11.348;2023-05-25T00:01:42;120.30;;;2.83;;
8411;SDS011;4243;49.296;11.348;2023-05-25T00:04:10;119.47;;;2.90;;
8411;SDS011;4243;49.296;11.348;2023-05-25T00:06:42;119.97;;;2.80;;
8411;SDS011;4243;49.296;11.348;2023-05-25T00:09:12;120.10;;;2.90;;
8411;SDS011;4243;49.296;11.348;2023-05-25T00:11:39;120.37;;;2.80;;
8411;SDS011;4243;49.296;11.348;2023-05-25T00:14:06;120.37;;;2.90;;
8411;SDS011;4243;49.296;11.348;2023-05-25T00:16:34;119.00;;;2.87;;
8411;SDS011;4243;49.296;11.348;2023-05-25T00:19:05;119.97;;;2.90;;
8411;SDS011;4243;49.296;11.348;2023-05-25T00:21:35;119.57;;;3.00;;
8411;SDS011;4243;49.296;11.348;2023-05-25T00:24:06;118.87;;;2.80;;
8411;SDS011;4243;49.296;11.348;2023-05-25T00:26:34;119.70;;;3.00;;
8411;SDS011;4243;49.296;11.348;2023-05-25T00:29:04;118.47;;;2.90;;
8411;SDS011;4243;49.296;11.348;2023-05-25T00:31:32;119.80;;;2.80;;
8411;SDS011;4243;49.296;11.348;2023-05-25T00:34:01;120.30;;;2.90;;
8411;SDS011;4243;49.296;11.348;2023-05-25T00:36:28;120.40;;;3.00;;
8411;SDS011;4243;49.296;11.348;2023-05-25T00:38:56;119.70;;;2.87;;
8411;SDS011;4243;49.296;11.348;2023-05-25T00:41:23;119.97;;;2.80;;
8411;SDS011;4243;49.296;11.348;2023-05-25T00:43:54;120.27;;;2.87;;
8411;SDS011;4243;49.296;11.348;2023-05-25T00:46:22;119.37;;;2.90;;
8411;SDS011;4243;49.296;11.348;2023-05-25T00:48:51;119.17;;;2.77;;
8411;SDS011;4243;49.296;11.348;2023-05-25T00:51:21;120.27;;;2.80;;
8411;SDS011;4243;49.296;11.348;2023-05-25T00:53:50;120.50;;;2.83;;
8411;SDS011;4243;49.296;11.348;2023-05-25T00:56:23;118.23;;;2.73;;
8411;SDS011;4243;49.296;11.348;2023-05-25T00:58:56;119.30;;;3.00;;
8411;SDS011;4243;49.296;11.348;2023-05-25T01:01:34;120.00;;;2.80;;
8411;SDS011;4243;49.296;11.348;2023-05-25T01:04:06;119.60;;;2.80;;
8411;SDS011;4243;49.296;11.348;2023-05-25T01:06:35;120.47;;;2.97;;
8411;SDS011;4243;49.296;11.348;2023-05-25T01:09:06;119.50;;;2.80;;
8411;SDS011;4243;49.296;11.348;2023-05-25T01:11:41;120.27;;;2.87;;
8411;SDS011;4243;49.296;11.348;2023-05-25T01:14:14;119.70;;;2.70;;
8411;SDS011;4243;49.296;11.348;2023-05-25T01:16:49;119.73;;;2.80;;
8411;SDS011;4243;49.296;11.348;2023-05-25T01:19:18;120.00;;;2.73;;
8411;SDS011;4243;49.296;11.348;2023-05-25T01:21:51;120.00;;;2.80;;
8411;SDS011;4243;49.296;11.348;2023-05-25T01:25:02;119.57;;;2.80;;
8411;SDS011;4243;49.296;11.348;2023-05-25T01:27:47;119.77;;;2.77;;
8411;SDS011;4243;49.296;11.348;2023-05-25T01:30:26;120.37;;;2.87;;
8411;SDS011;4243;49.296;11.348;2023-05-25T01:32:56;119.80;;;2.70;;
8411;SDS011;4243;49.296;11.348;2023-05-25T01:35:26;119.87;;;2.80;;
8411;SDS011;4243;49.296;11.348;2023-05-25T01:37:55;119.60;;;2.80;;
8411;SDS011;4243;49.296;11.348;2023-05-25T01:40:24;120.33;;;2.80;;
8411;SDS011;4243;49.296;11.348;2023-05-25T01:42:52;120.30;;;2.77;;
8411;SDS011;4243;49.296;11.348;2023-05-25T01:45:20;119.50;;;2.77;;
8411;SDS011;4243;49.296;11.348;2023-05-25T01:50:57;119.87;;;2.83;;
8411;SDS011;4243;49.296;11.348;2023-05-25T01:53:41;119.87;;;2.90;;
8411;SDS011;4243;49.296;11.348;2023-05-25T01:56:15;119.17;;;2.70;;
8411;SDS011;4243;49.296;11.348;2023-05-25T01:58:45;117.90;;;2.90;;
8411;SDS011;4243;49.296;11.348;2023-05-25T02:01:16;118.37;;;2.90;;
8411;SDS011;4243;49.296;11.348;2023-05-25T02:03:46;119.70;;;3.00;;
8411;SDS011;4243;49.296;11.348;2023-05-25T02:06:15;119.60;;;2.70;;
8411;SDS011;4243;49.296;11.348;2023-05-25T02:08:42;119.50;;;2.80;;
8411;SDS011;4243;49.296;11.348;2023-05-25T02:11:12;120.57;;;2.90;;
8411;SDS011;4243;49.296;11.348;2023-05-25T02:13:40;120.53;;;3.00;;
8411;SDS011;4243;49.296;11.348;2023-05-25T02:16:07;119.87;;;2.80;;
8411;SDS011;4243;49.296;11.348;2023-05-25T02:18:34;119.30;;;2.90;;
8411;SDS011;4243;49.296;11.348;2023-05-25T02:21:02;118.50;;;3.00;;
8411;SDS011;4243;49.296;11.348;2023-05-25T02:23:29;120.20;;;3.03;;
8411;SDS011;4243;49.296;11.348;2023-05-25T02:25:56;119.80;;;3.10;;
8411;SDS011;4243;49.296;11.348;2023-05-25T02:28:23;119.80;;;3.03;;
8411;SDS011;4243;49.296;11.348;2023-05-25T02:30:51;119.47;;;2.87;;
8411;SDS011;4243;49.296;11.348;2023-05-25T02:33:18;119.60;;;2.80;;
8411;SDS011;4243;49.296;11.348;2023-05-25T02:35:45;119.80;;;2.97;;
8411;SDS011;4243;49.296;11.348;2023-05-25T02:38:14;119.90;;;3.13;;
8411;SDS011;4243;49.296;11.348;2023-05-25T02:40:41;118.47;;;3.00;;
8411;SDS011;4243;49.296;11.348;2023-05-25T02:43:11;119.80;;;2.80;;
8411;SDS011;4243;49.296;11.348;2023-05-25T02:45:39;118.70;;;2.93;;
8411;SDS011;4243;49.296;11.348;2023-05-25T02:48:06;121.00;;;3.20;;
8411;SDS011;4243;49.296;11.348;2023-05-25T02:50:34;120.40;;;3.13;;
8411;SDS011;4243;49.296;11.348;2023-05-25T02:53:04;120.50;;;3.13;;
8411;SDS011;4243;49.296;11.348;2023-05-25T02:55:32;119.90;;;3.17;;
8411;SDS011;4243;49.296;11.348;2023-05-25T02:58:00;120.20;;;3.13;;
8411;SDS011;4243;49.296;11.348;2023-05-25T03:00:46;120.20;;;3.30;;
8411;SDS011;4243;49.296;11.348;2023-05-25T03:03:13;121.00;;;3.20;;
8411;SDS011;4243;49.296;11.348;2023-05-25T03:05:40;120.87;;;3.10;;
8411;SDS011;4243;49.296;11.348;2023-05-25T03:08:09;120.57;;;3.10;;
8411;SDS011;4243;49.296;11.348;2023-05-25T03:10:36;120.20;;;3.00;;
8411;SDS011;4243;49.296;11.348;2023-05-25T03:13:06;118.17;;;3.03;;
8411;SDS011;4243;49.296;11.348;2023-05-25T03:15:33;120.60;;;3.17;;
8411;SDS011;4243;49.296;11.348;2023-05-25T03:18:03;120.97;;;3.10;;
8411;SDS011;4243;49.296;11.348;2023-05-25T03:20:34;120.50;;;3.20;;
8411;SDS011;4243;49.296;11.348;2023-05-25T03:23:02;119.50;;;3.17;;
8411;SDS011;4243;49.296;11.348;2023-05-25T03:25:31;120.30;;;3.17;;
8411;SDS011;4243;49.296;11.348;2023-05-25T03:27:59;120.10;;;2.90;;
8411;SDS011;4243;49.296;11.348;2023-05-25T03:30:27;119.80;;;3.10;;
8411;SDS011;4243;49.296;11.348;2023-05-25T03:32:56;118.10;;;3.03;;
8411;SDS011;4243;49.296;11.348;2023-05-25T03:35:29;120.17;;;3.30;;
8411;SDS011;4243;49.296;11.348;2023-05-25T03:37:56;118.87;;;2.93;;
8411;SDS011;4243;49.296;11.348;2023-05-25T03:40:24;119.37;;;2.90;;
8411;SDS011;4243;49.296;11.348;2023-05-25T03:42:53;120.27;;;3.00;;
8411;SDS011;4243;49.296;11.348;2023-05-25T03:45:20;120.37;;;2.90;;
8411;SDS011;4243;49.296;11.348;2023-05-25T03:47:49;120.00;;;2.80;;
8411;SDS011;4243;49.296;11.348;2023-05-25T03:50:17;119.97;;;2.93;;
8411;SDS011;4243;49.296;11.348;2023-05-25T03:52:44;120.30;;;3.00;;
8411;SDS011;4243;49.296;11.348;2023-05-25T03:55:11;119.80;;;2.87;;
8411;SDS011;4243;49.296;11.348;2023-05-25T03:57:43;119.23;;;2.73;;
8411;SDS011;4243;49.296;11.348;2023-05-25T04:00:10;119.83;;;2.90;;
8411;SDS011;4243;49.296;11.348;2023-05-25T04:02:40;119.10;;;3.00;;
8411;SDS011;4243;49.296;11.348;2023-05-25T04:05:08;119.97;;;2.90;;
8411;SDS011;4243;49.296;11.348;2023-05-25T04:07:35;120.00;;;2.90;;
8411;SDS011;4243;49.296;11.348;2023-05-25T04:10:03;120.37;;;2.87;;
8411;SDS011;4243;49.296;11.348;2023-05-25T04:12:31;119.27;;;3.03;;
8411;SDS011;4243;49.296;11.348;2023-05-25T04:15:01;119.43;;;2.83;;
8411;SDS011;4243;49.296;11.348;2023-05-25T04:17:34;119.30;;;3.00;;
8411;SDS011;4243;49.296;11.348;2023-05-25T04:20:05;118.00;;;2.93;;
8411;SDS011;4243;49.296;11.348;2023-05-25T04:22:35;119.77;;;2.80;;
8411;SDS011;4243;49.296;11.348;2023-05-25T04:25:06;119.00;;;3.00;;
8411;SDS011;4243;49.296;11.348;2023-05-25T04:27:34;119.17;;;2.80;;
8411;SDS011;4243;49.296;11.348;2023-05-25T04:30:03;118.97;;;2.87;;
8411;SDS011;4243;49.296;11.348;2023-05-25T04:32:43;119.10;;;3.00;;
8411;SDS011;4243;49.296;11.348;2023-05-25T04:35:21;119.17;;;3.00;;
8411;SDS011;4243;49.296;11.348;2023-05-25T04:37:49;118.17;;;2.90;;
8411;SDS011;4243;49.296;11.348;2023-05-25T04:40:17;119.23;;;2.80;;
8411;SDS011;4243;49.296;11.348;2023-05-25T04:42:47;118.37;;;2.73;;
8411;SDS011;4243;49.296;11.348;2023-05-25T04:45:14;118.40;;;2.70;;
8411;SDS011;4243;49.296;11.348;2023-05-25T04:47:42;118.63;;;2.73;;
8411;SDS011;4243;49.296;11.348;2023-05-25T04:50:10;118.10;;;2.83;;
8411;SDS011;4243;49.296;11.348;2023-05-25T04:52:37;118.20;;;2.80;;
8411;SDS011;4243;49.296;11.348;2023-05-25T04:55:08;118.70;;;2.77;;
8411;SDS011;4243;49.296;11.348;2023-05-25T04:57:38;118.70;;;2.87;;
8411;SDS011;4243;49.296;11.348;2023-05-25T05:00:06;118.97;;;3.30;;
8411;SDS011;4243;49.296;11.348;2023-05-25T05:02:37;118.70;;;3.67;;
8411;SDS011;4243;49.296;11.348;2023-05-25T05:05:05;118.80;;;4.00;;
8411;SDS011;4243;49.296;11.348;2023-05-25T05:07:33;118.67;;;4.30;;
8411;SDS011;4243;49.296;11.348;2023-05-25T05:10:01;119.30;;;4.63;;
8411;SDS011;4243;49.296;11.348;2023-05-25T05:12:31;119.50;;;4.60;;
8411;SDS011;4243;49.296;11.348;2023-05-25T05:15:00;119.43;;;4.53;;
8411;SDS011;4243;49.296;11.348;2023-05-25T05:17:27;119.07;;;4.83;;
8411;SDS011;4243;49.296;11.348;2023-05-25T05:19:57;119.37;;;4.47;;
8411;SDS011;4243;49.296;11.348;2023-05-25T05:22:26;118.87;;;4.37;;
8411;SDS011;4243;49.296;11.348;2023-05-25T05:24:55;118.80;;;4.17;;
8411;SDS011;4243;49.296;11.348;2023-05-25T05:27:23;119.07;;;3.87;;
8411;SDS011;4243;49.296;11.348;2023-05-25T05:29:59;118.70;;;3.70;;
8411;SDS011;4243;49.296;11.348;2023-05-25T05:32:27;118.50;;;4.10;;
8411;SDS011;4243;49.296;11.348;2023-05-25T05:34:55;118.67;;;3.97;;
8411;SDS011;4243;49.296;11.348;2023-05-25T05:37:37;118.17;;;3.30;;
8411;SDS011;4243;49.296;11.348;2023-05-25T05:40:05;118.33;;;3.27;;
8411;SDS011;4243;49.296;11.348;2023-05-25T05:42:35;118.50;;;3.43;;
8411;SDS011;4243;49.296;11.348;2023-05-25T05:45:02;118.20;;;3.10;;
8411;SDS011;4243;49.296;11.348;2023-05-25T05:47:29;118.50;;;3.30;;
8411;SDS011;4243;49.296;11.348;2023-05-25T05:49:57;118.53;;;3.17;;
8411;SDS011;4243;49.296;11.348;2023-05-25T05:52:26;118.63;;;3.20;;
8411;SDS011;4243;49.296;11.348;2023-05-25T05:54:53;118.30;;;3.17;;
8411;SDS011;4243;49.296;11.348;2023-05-25T05:57:22;118.70;;;3.07;;
8411;SDS011;4243;49.296;11.348;2023-05-25T05:59:49;118.00;;;3.33;;
8411;SDS011;4243;49.296;11.348;2023-05-25T06:02:16;117.87;;;3.17;;
8411;SDS011;4243;49.296;11.348;2023-05-25T06:04:45;118.80;;;3.40;;
8411;SDS011;4243;49.296;11.348;2023-05-25T06:07:12;118.43;;;3.33;;
8411;SDS011;4243;49.296;11.348;2023-05-25T06:09:39;118.67;;;3.27;;
8411;SDS011;4243;49.296;11.348;2023-05-25T06:12:07;118.33;;;3.17;;
8411;SDS011;4243;49.296;11.348;2023-05-25T06:14:34;117.87;;;2.90;;
8411;SDS011;4243;49.296;11.348;2023-05-25T06:17:04;117.97;;;3.30;;
8411;SDS011;4243;49.296;11.348;2023-05-25T06:19:31;118.03;;;3.20;;
8411;SDS011;4243;49.296;11.348;2023-05-25T06:21:58;117.77;;;3.10;;
8411;SDS011;4243;49.296;11.348;2023-05-25T06:24:26;117.70;;;3.60;;
8411;SDS011;4243;49.296;11.348;2023-05-25T06:26:53;117.40;;;3.10;;
8411;SDS011;4243;49.296;11.348;2023-05-25T06:29:20;117.47;;;2.90;;
8411;SDS011;4243;49.296;11.348;2023-05-25T06:31:47;117.00;;;2.90;;
8411;SDS011;4243;49.296;11.348;2023-05-25T06:34:16;117.70;;;2.90;;
8411;SDS011;4243;49.296;11.348;2023-05-25T06:36:44;117.50;;;3.03;;
8411;SDS011;4243;49.296;11.348;2023-05-25T06:39:14;117.57;;;3.27;;
8411;SDS011;4243;49.296;11.348;2023-05-25T06:41:41;117.00;;;3.53;;
8411;SDS011;4243;49.296;11.348;2023-05-25T06:44:09;117.80;;;3.73;;
8411;SDS011;4243;49.296;11.348;2023-05-25T06:46:44;117.83;;;3.70;;
8411;SDS011;4243;49.296;11.348;2023-05-25T06:49:13;118.03;;;3.37;;
8411;SDS011;4243;49.296;11.348;2023-05-25T06:51:40;117.97;;;3.50;;
8411;SDS011;4243;49.296;11.348;2023-05-25T06:54:08;117.90;;;3.53;;
8411;SDS011;4243;49.296;11.348;2023-05-25T06:56:36;117.57;;;3.53;;
8411;SDS011;4243;49.296;11.348;2023-05-25T06:59:04;117.60;;;3.57;;
8411;SDS011;4243;49.296;11.348;2023-05-25T07:01:31;117.60;;;3.53;;
8411;SDS011;4243;49.296;11.348;2023-05-25T07:03:58;117.50;;;3.47;;
8411;SDS011;4243;49.296;11.348;2023-05-25T07:06:25;117.70;;;3.20;;
8411;SDS011;4243;49.296;11.348;2023-05-25T07:08:53;117.90;;;3.30;;
8411;SDS011;4243;49.296;11.348;2023-05-25T07:11:20;117.10;;;3.10;;
8411;SDS011;4243;49.296;11.348;2023-05-25T07:13:48;117.50;;;3.10;;
8411;SDS011;4243;49.296;11.348;2023-05-25T07:16:16;117.60;;;3.30;;
8411;SDS011;4243;49.296;11.348;2023-05-25T07:18:43;116.80;;;2.87;;
8411;SDS011;4243;49.296;11.348;2023-05-25T07:21:10;117.07;;;2.83;;
8411;SDS011;4243;49.296;11.348;2023-05-25T07:23:37;116.07;;;2.73;;
8411;SDS011;4243;49.296;11.348;2023-05-25T07:26:07;116.57;;;2.53;;
8411;SDS011;4243;49.296;11.348;2023-05-25T07:28:34;116.87;;;2.60;;
8411;SDS011;4243;49.296;11.348;2023-05-25T07:31:01;116.43;;;2.70;;
8411;SDS011;4243;49.296;11.348;2023-05-25T07:33:28;116.30;;;2.60;;
8411;SDS011;4243;49.296;11.348;2023-05-25T07:35:56;116.60;;;2.80;;
8411;SDS011;4243;49.296;11.348;2023-05-25T07:38:23;116.17;;;2.70;;
8411;SDS011;4243;49.296;11.348;2023-05-25T07:40:50;115.40;;;2.10;;
8411;SDS011;4243;49.296;11.348;2023-05-25T07:43:18;115.20;;;2.00;;
8411;SDS011;4243;49.296;11.348;2023-05-25T07:45:45;114.80;;;2.00;;
8411;SDS011;4243;49.296;11.348;2023-05-25T07:48:12;115.50;;;1.97;;
8411;SDS011;4243;49.296;11.348;2023-05-25T07:50:39;115.67;;;2.30;;
8411;SDS011;4243;49.296;11.348;2023-05-25T07:53:06;115.50;;;2.30;;
8411;SDS011;4243;49.296;11.348;2023-05-25T07:55:33;115.13;;;2.67;;
8411;SDS011;4243;49.296;11.348;2023-05-25T07:58:01;114.87;;;2.67;;
8411;SDS011;4243;49.296;11.348;2023-05-25T08:03:37;113.60;;;2.30;;
8411;SDS011;4243;49.296;11.348;2023-05-25T08:06:15;114.77;;;3.00;;
8411;SDS011;4243;49.296;11.348;2023-05-25T08:08:42;115.90;;;3.67;;
8411;SDS011;4243;49.296;11.348;2023-05-25T08:11:10;114.53;;;4.17;;
8411;SDS011;4243;49.296;11.348;2023-05-25T08:13:38;115.87;;;5.30;;
8411;SDS011;4243;49.296;11.348;2023-05-25T08:16:05;115.10;;;6.77;;
8411;SDS011;4243;49.296;11.348;2023-05-25T08:18:35;114.67;;;5.30;;
8411;SDS011;4243;49.296;11.348;2023-05-25T08:21:03;113.63;;;2.50;;
8411;SDS011;4243;49.296;11.348;2023-05-25T08:23:30;113.47;;;3.03;;
8411;SDS011;4243;49.296;11.348;2023-05-25T08:25:57;114.17;;;4.07;;
8411;SDS011;4243;49.296;11.348;2023-05-25T08:28:26;113.70;;;4.27;;
8411;SDS011;4243;49.296;11.348;2023-05-25T08:30:53;114.50;;;6.57;;
8411;SDS011;4243;49.296;11.348;2023-05-25T08:33:23;116.77;;;10.67;;
8411;SDS011;4243;49.296;11.348;2023-05-25T08:35:51;114.77;;;7.80;;
8411;SDS011;4243;49.296;11.348;2023-05-25T08:38:18;114.00;;;5.87;;
8411;SDS011;4243;49.296;11.348;2023-05-25T08:40:58;113.90;;;6.90;;
8411;SDS011;4243;49.296;11.348;2023-05-25T08:43:32;115.17;;;9.57;;
8411;SDS011;4243;49.296;11.348;2023-05-25T08:46:02;113.70;;;6.37;;
8411;SDS011;4243;49.296;11.348;2023-05-25T08:48:32;111.67;;;3.20;;
8411;SDS011;4243;49.296;11.348;2023-05-25T08:51:08;111.50;;;2.80;;
8411;SDS011;4243;49.296;11.348;2023-05-25T08:53:39;111.87;;;3.37;;
8411;SDS011;4243;49.296;11.348;2023-05-25T08:56:18;112.70;;;5.57;;
8411;SDS011;4243;49.296;11.348;2023-05-25T08:58:53;112.77;;;5.07;;
8411;SDS011;4243;49.296;11.348;2023-05-25T09:01:32;110.97;;;2.97;;
8411;SDS011;4243;49.296;11.348;2023-05-25T09:04:12;111.17;;;2.70;;
8411;SDS011;4243;49.296;11.348;2023-05-25T09:06:39;111.97;;;4.60;;
8411;SDS011;4243;49.296;11.348;2023-05-25T09:09:07;112.83;;;6.33;;
8411;SDS011;4243;49.296;11.348;2023-05-25T09:11:34;114.23;;;9.33;;
8411;SDS011;4243;49.296;11.348;2023-05-25T09:14:06;114.17;;;8.77;;
8411;SDS011;4243;49.296;11.348;2023-05-25T09:16:35;113.50;;;7.80;;
8411;SDS011;4243;49.296;11.348;2023-05-25T09:19:03;112.97;;;7.60;;
8411;SDS011;4243;49.296;11.348;2023-05-25T09:21:33;112.90;;;7.67;;
8411;SDS011;4243;49.296;11.348;2023-05-25T09:24:02;112.70;;;6.80;;
8411;SDS011;4243;49.296;11.348;2023-05-25T09:26:30;113.37;;;7.70;;
8411;SDS011;4243;49.296;11.348;2023-05-25T09:28:59;111.70;;;5.67;;
8411;SDS011;4243;49.296;11.348;2023-05-25T09:31:27;111.30;;;4.27;;
8411;SDS011;4243;49.296;11.348;2023-05-25T09:33:54;109.97;;;2.60;;
8411;SDS011;4243;49.296;11.348;2023-05-25T09:36:25;110.30;;;2.30;;
8411;SDS011;4243;49.296;11.348;2023-05-25T09:38:52;110.37;;;2.63;;
8411;SDS011;4243;49.296;11.348;2023-05-25T09:41:21;110.20;;;2.20;;
8411;SDS011;4243;49.296;11.348;2023-05-25T09:43:52;110.10;;;2.80;;
8411;SDS011;4243;49.296;11.348;2023-05-25T09:46:36;110.07;;;2.57;;
8411;SDS011;4243;49.296;11.348;2023-05-25T09:49:06;111.30;;;3.40;;
8411;SDS011;4243;49.296;11.348;2023-05-25T09:51:34;110.57;;;3.00;;
8411;SDS011;4243;49.296;11.348;2023-05-25T09:54:03;110.57;;;2.97;;
8411;SDS011;4243;49.296;11.348;2023-05-25T09:56:36;109.77;;;2.63;;
8411;SDS011;4243;49.296;11.348;2023-05-25T09:59:03;109.80;;;2.97;;
8411;SDS011;4243;49.296;11.348;2023-05-25T10:01:30;109.80;;;4.10;;
8411;SDS011;4243;49.296;11.348;2023-05-25T10:03:59;110.30;;;4.20;;
8411;SDS011;4243;49.296;11.348;2023-05-25T10:06:31;109.60;;;3.80;;
8411;SDS011;4243;49.296;11.348;2023-05-25T10:08:59;109.37;;;3.97;;
8411;SDS011;4243;49.296;11.348;2023-05-25T10:11:27;108.73;;;2.60;;
8411;SDS011;4243;49.296;11.348;2023-05-25T10:13:55;107.67;;;1.80;;
8411;SDS011;4243;49.296;11.348;2023-05-25T10:16:25;108.00;;;1.80;;
8411;SDS011;4243;49.296;11.348;2023-05-25T10:19:00;107.10;;;1.80;;
8411;SDS011;4243;49.296;11.348;2023-05-25T10:21:37;107.20;;;1.80;;
8411;SDS011;4243;49.296;11.348;2023-05-25T10:24:16;107.40;;;2.33;;
8411;SDS011;4243;49.296;11.348;2023-05-25T10:26:58;109.40;;;6.47;;
8411;SDS011;4243;49.296;11.348;2023-05-25T10:29:48;109.23;;;6.60;;
8411;SDS011;4243;49.296;11.348;2023-05-25T10:32:17;107.37;;;4.13;;
8411;SDS011;4243;49.296;11.348;2023-05-25T10:34:45;107.47;;;4.03;;
8411;SDS011;4243;49.296;11.348;2023-05-25T10:37:13;108.57;;;5.00;;
8411;SDS011;4243;49.296;11.348;2023-05-25T10:39:43;108.57;;;4.43;;
8411;SDS011;4243;49.296;11.348;2023-05-25T10:42:12;109.10;;;5.37;;
8411;SDS011;4243;49.296;11.348;2023-05-25T10:44:42;108.43;;;5.00;;
8411;SDS011;4243;49.296;11.348;2023-05-25T10:47:10;108.77;;;4.67;;
8411;SDS011;4243;49.296;11.348;2023-05-25T10:49:54;108.53;;;4.07;;
8411;SDS011;4243;49.296;11.348;2023-05-25T10:52:27;107.97;;;3.80;;
8411;SDS011;4243;49.296;11.348;2023-05-25T10:54:58;107.70;;;3.57;;
8411;SDS011;4243;49.296;11.348;2023-05-25T10:57:29;108.97;;;4.33;;
8411;SDS011;4243;49.296;11.348;2023-05-25T11:00:01;109.00;;;3.73;;
8411;SDS011;4243;49.296;11.348;2023-05-25T11:02:49;108.77;;;2.87;;
8411;SDS011;4243;49.296;11.348;2023-05-25T11:07:55;107.60;;;3.60;;
8411;SDS011;4243;49.296;11.348;2023-05-25T11:13:22;108.13;;;3.37;;
8411;SDS011;4243;49.296;11.348;2023-05-25T11:16:14;108.43;;;3.47;;
8411;SDS011;4243;49.296;11.348;2023-05-25T11:18:57;108.30;;;3.50;;
8411;SDS011;4243;49.296;11.348;2023-05-25T11:23:56;108.47;;;3.90;;
8411;SDS011;4243;49.296;11.348;2023-05-25T11:26:32;108.40;;;3.00;;
8411;SDS011;4243;49.296;11.348;2023-05-25T11:29:03;107.57;;;3.20;;
8411;SDS011;4243;49.296;11.348;2023-05-25T11:31:41;108.07;;;2.80;;
8411;SDS011;4243;49.296;11.348;2023-05-25T11:34:09;107.80;;;3.13;;
8411;SDS011;4243;49.296;11.348;2023-05-25T11:36:37;108.10;;;3.13;;
8411;SDS011;4243;49.296;11.348;2023-05-25T11:39:05;108.07;;;4.00;;
8411;SDS011;4243;49.296;11.348;2023-05-25T11:41:54;107.97;;;4.30;;
8411;SDS011;4243;49.296;11.348;2023-05-25T11:44:28;107.83;;;4.20;;
8411;SDS011;4243;49.296;11.348;2023-05-25T11:47:11;115.20;;;5.40;;
8411;SDS011;4243;49.296;11.348;2023-05-25T11:49:40;108.20;;;3.63;;
8411;SDS011;4243;49.296;11.348;2023-05-25T11:52:12;107.20;;;3.73;;
8411;SDS011;4243;49.296;11.348;2023-05-25T11:54:46;107.20;;;3.83;;
8411;SDS011;4243;49.296;11.348;2023-05-25T11:57:17;107.17;;;3.07;;
8411;SDS011;4243;49.296;11.348;2023-05-25T11:59:54;107.70;;;2.50;;
8411;SDS011;4243;49.296;11.348;2023-05-25T12:02:25;107.47;;;3.00;;
8411;SDS011;4243;49.296;11.348;2023-05-25T12:04:59;107.07;;;2.50;;
8411;SDS011;4243;49.296;11.348;2023-05-25T12:07:28;107.23;;;2.70;;
8411;SDS011;4243;49.296;11.348;2023-05-25T12:10:03;107.20;;;3.00;;
8411;SDS011;4243;49.296;11.348;2023-05-25T12:12:39;112.60;;;3.43;;
8411;SDS011;4243;49.296;11.348;2023-05-25T12:15:21;106.50;;;2.87;;
8411;SDS011;4243;49.296;11.348;2023-05-25T12:17:50;106.80;;;2.50;;
8411;SDS011;4243;49.296;11.348;2023-05-25T12:20:19;107.57;;;2.77;;
8411;SDS011;4243;49.296;11.348;2023-05-25T12:22:47;106.97;;;2.77;;
8411;SDS011;4243;49.296;11.348;2023-05-25T12:25:18;107.10;;;3.93;;
8411;SDS011;4243;49.296;11.348;2023-05-25T12:28:08;107.33;;;3.97;;
8411;SDS011;4243;49.296;11.348;2023-05-25T12:30:40;106.87;;;2.27;;
8411;SDS011;4243;49.296;11.348;2023-05-25T12:33:08;107.47;;;2.20;;
8411;SDS011;4243;49.296;11.348;2023-05-25T12:35:46;107.37;;;2.20;;
8411;SDS011;4243;49.296;11.348;2023-05-25T12:38:16;107.37;;;2.00;;
8411;SDS011;4243;49.296;11.348;2023-05-25T12:41:04;107.47;;;2.00;;
8411;SDS011;4243;49.296;11.348;2023-05-25T12:43:39;107.60;;;2.03;;
8411;SDS011;4243;49.296;11.348;2023-05-25T12:46:08;107.90;;;2.00;;
8411;SDS011;4243;49.296;11.348;2023-05-25T12:48:36;107.27;;;1.83;;
8411;SDS011;4243;49.296;11.348;2023-05-25T12:51:03;108.10;;;2.10;;
8411;SDS011;4243;49.296;11.348;2023-05-25T12:53:30;108.90;;;2.50;;
8411;SDS011;4243;49.296;11.348;2023-05-25T12:56:12;108.63;;;2.27;;
8411;SDS011;4243;49.296;11.348;2023-05-25T12:58:39;108.80;;;2.70;;
8411;SDS011;4243;49.296;11.348;2023-05-25T13:01:07;108.60;;;2.00;;
8411;SDS011;4243;49.296;11.348;2023-05-25T13:03:35;108.27;;;1.90;;
8411;SDS011;4243;49.296;11.348;2023-05-25T13:06:02;108.17;;;2.00;;
8411;SDS011;4243;49.296;11.348;2023-05-25T13:08:31;107.37;;;1.90;;
8411;SDS011;4243;49.296;11.348;2023-05-25T13:10:58;108.17;;;1.87;;
8411;SDS011;4243;49.296;11.348;2023-05-25T13:13:26;108.17;;;2.23;;
8411;SDS011;4243;49.296;11.348;2023-05-25T13:15:54;108.57;;;2.40;;
8411;SDS011;4243;49.296;11.348;2023-05-25T13:18:24;108.67;;;2.70;;
8411;SDS011;4243;49.296;11.348;2023-05-25T13:20:51;108.90;;;2.60;;
8411;SDS011;4243;49.296;11.348;2023-05-25T13:23:22;108.57;;;2.33;;
8411;SDS011;4243;49.296;11.348;2023-05-25T13:25:50;108.67;;;2.80;;
8411;SDS011;4243;49.296;11.348;2023-05-25T13:28:17;108.97;;;2.63;;
8411;SDS011;4243;49.296;11.348;2023-05-25T13:30:44;108.63;;;2.20;;
8411;SDS011;4243;49.296;11.348;2023-05-25T13:33:12;107.87;;;2.20;;
8411;SDS011;4243;49.296;11.348;2023-05-25T13:35:40;109.13;;;2.87;;
8411;SDS011;4243;49.296;11.348;2023-05-25T13:38:23;109.57;;;3.57;;
8411;SDS011;4243;49.296;11.348;2023-05-25T13:40:50;109.17;;;3.23;;
8411;SDS011;4243;49.296;11.348;2023-05-25T13:43:18;109.40;;;3.27;;
8411;SDS011;4243;49.296;11.348;2023-05-25T13:45:45;109.70;;;3.30;;
8411;SDS011;4243;49.296;11.348;2023-05-25T13:48:12;110.13;;;4.60;;
8411;SDS011;4243;49.296;11.348;2023-05-25T13:50:40;109.67;;;3.60;;
8411;SDS011;4243;49.296;11.348;2023-05-25T13:53:10;110.03;;;3.80;;
8411;SDS011;4243;49.296;11.348;2023-05-25T13:55:38;110.30;;;3.97;;
8411;SDS011;4243;49.296;11.348;2023-05-25T13:58:06;109.47;;;3.47;;
8411;SDS011;4243;49.296;11.348;2023-05-25T14:00:34;110.27;;;3.80;;
8411;SDS011;4243;49.296;11.348;2023-05-25T14:03:01;109.87;;;3.80;;
8411;SDS011;4243;49.296;11.348;2023-05-25T14:05:29;110.07;;;4.10;;
8411;SDS011;4243;49.296;11.348;2023-05-25T14:07:56;110.47;;;4.80;;
8411;SDS011;4243;49.296;11.348;2023-05-25T14:10:26;109.53;;;4.07;;
8411;SDS011;4243;49.296;11.348;2023-05-25T14:12:53;110.10;;;4.60;;
8411;SDS011;4243;49.296;11.348;2023-05-25T14:15:21;109.50;;;3.80;;
8411;SDS011;4243;49.296;11.348;2023-05-25T14:17:48;109.77;;;4.00;;
8411;SDS011;4243;49.296;11.348;2023-05-25T14:20:16;110.10;;;3.93;;
8411;SDS011;4243;49.296;11.348;2023-05-25T14:22:51;110.37;;;4.03;;
8411;SDS011;4243;49.296;11.348;2023-05-25T14:25:19;110.00;;;3.30;;
8411;SDS011;4243;49.296;11.348;2023-05-25T14:27:46;110.37;;;3.07;;
8411;SDS011;4243;49.296;11.348;2023-05-25T14:30:13;110.67;;;2.97;;
8411;SDS011;4243;49.296;11.348;2023-05-25T14:32:40;110.47;;;3.07;;
8411;SDS011;4243;49.296;11.348;2023-05-25T14:35:08;110.30;;;2.80;;
8411;SDS011;4243;49.296;11.348;2023-05-25T14:37:35;110.00;;;3.07;;
8411;SDS011;4243;49.296;11.348;2023-05-25T14:40:02;111.20;;;2.60;;
8411;SDS011;4243;49.296;11.348;2023-05-25T14:42:31;111.17;;;2.83;;
8411;SDS011;4243;49.296;11.348;2023-05-25T14:44:58;110.70;;;2.63;;
8411;SDS011;4243;49.296;11.348;2023-05-25T14:47:26;110.97;;;3.00;;
8411;SDS011;4243;49.296;11.348;2023-05-25T14:49:53;110.97;;;2.80;;
8411;SDS011;4243;49.296;11.348;2023-05-25T14:52:21;111.10;;;3.00;;
8411;SDS011;4243;49.296;11.348;2023-05-25T14:54:48;110.07;;;2.80;;
8411;SDS011;4243;49.296;11.348;2023-05-25T14:57:16;110.67;;;2.70;;
8411;SDS011;4243;49.296;11.348;2023-05-25T14:59:43;109.70;;;2.63;;
8411;SDS011;4243;49.296;11.348;2023-05-25T15:02:10;109.07;;;2.37;;
8411;SDS011;4243;49.296;11.348;2023-05-25T15:04:42;109.57;;;2.60;;